createdAt,value
2022-08-07T00:00:26.546Z,15.30
2022-08-07T00:02:56.136Z,15.10
2022-08-07T00:05:24.561Z,15.00
2022-08-07T00:07:59.678Z,14.90
2022-08-07T00:10:30.649Z,14.70
2022-08-07T00:13:09.924Z,14.50
2022-08-07T00:15:52.875Z,14.40
2022-08-07T00:18:24.572Z,14.40
2022-08-07T00:20:54.427Z,14.40
2022-08-07T00:23:22.509Z,14.20
2022-08-07T00:25:52.140Z,14.10
2022-08-07T00:28:33.747Z,14.10
2022-08-07T00:31:06.036Z,14.00
2022-08-07T00:33:35.461Z,14.00
2022-08-07T00:36:05.033Z,13.80
2022-08-07T00:38:34.126Z,13.80
2022-08-07T00:41:02.562Z,13.70
2022-08-07T00:44:00.279Z,13.70
2022-08-07T00:46:20.491Z,13.60
2022-08-07T00:48:51.829Z,13.50
2022-08-07T00:51:21.006Z,13.40
2022-08-07T00:53:55.208Z,13.40
2022-08-07T00:56:30.178Z,13.40
2022-08-07T00:59:00.075Z,13.30
2022-08-07T01:01:44.036Z,13.30
2022-08-07T01:04:24.712Z,13.30
2022-08-07T01:06:53.823Z,13.20
2022-08-07T01:10:04.586Z,13.20
2022-08-07T01:12:29.988Z,13.10
2022-08-07T01:15:04.475Z,13.10
2022-08-07T01:17:33.756Z,13.10
2022-08-07T01:20:07.936Z,13.10
2022-08-07T01:22:47.024Z,13.00
2022-08-07T01:25:54.870Z,13.00
2022-08-07T01:28:16.222Z,13.00
2022-08-07T01:30:46.239Z,12.90
2022-08-07T01:33:16.538Z,12.80
2022-08-07T01:35:53.249Z,12.70
2022-08-07T01:38:24.995Z,12.70
2022-08-07T01:40:58.354Z,12.60
2022-08-07T01:43:38.009Z,12.60
2022-08-07T01:46:12.261Z,12.60
2022-08-07T01:48:46.571Z,12.50
2022-08-07T01:52:01.032Z,12.50
2022-08-07T01:54:32.958Z,12.50
2022-08-07T01:57:08.270Z,12.50
2022-08-07T01:59:44.090Z,12.40
2022-08-07T02:02:32.473Z,12.40
2022-08-07T02:05:05.510Z,12.40
2022-08-07T02:07:50.146Z,12.20
2022-08-07T02:10:27.750Z,12.20
2022-08-07T02:12:59.717Z,12.10
2022-08-07T02:15:36.531Z,12.10
2022-08-07T02:18:06.602Z,12.10
2022-08-07T02:20:34.995Z,12.00
2022-08-07T02:23:07.530Z,11.90
2022-08-07T02:26:31.624Z,11.90
2022-08-07T02:28:32.281Z,11.80
2022-08-07T02:31:10.486Z,11.80
2022-08-07T02:34:03.612Z,11.80
2022-08-07T02:36:37.752Z,11.70
2022-08-07T02:39:17.490Z,11.70
2022-08-07T02:42:10.292Z,11.70
2022-08-07T02:44:49.723Z,11.60
2022-08-07T02:47:23.966Z,11.60
2022-08-07T02:50:00.380Z,11.70
2022-08-07T02:52:37.199Z,11.70
2022-08-07T02:55:27.554Z,11.70
2022-08-07T02:58:05.311Z,11.80
2022-08-07T03:00:36.030Z,11.80
2022-08-07T03:03:13.518Z,11.80
2022-08-07T03:05:47.698Z,11.80
2022-08-07T03:08:19.014Z,11.80
2022-08-07T03:10:57.069Z,11.70
2022-08-07T03:13:39.048Z,11.70
2022-08-07T03:16:23.031Z,11.70
2022-08-07T03:18:57.215Z,11.60
2022-08-07T03:21:26.147Z,11.60
2022-08-07T03:24:21.219Z,11.60
2022-08-07T03:26:58.433Z,11.50
2022-08-07T03:29:33.957Z,11.50
2022-08-07T03:32:13.394Z,11.50
2022-08-07T03:34:47.186Z,11.40
2022-08-07T03:37:37.414Z,11.40
2022-08-07T03:40:16.862Z,11.30
2022-08-07T03:42:46.150Z,11.30
2022-08-07T03:45:30.085Z,11.40
2022-08-07T03:48:03.906Z,11.30
2022-08-07T03:50:38.907Z,11.30
2022-08-07T03:53:12.027Z,11.20
2022-08-07T03:55:57.885Z,11.20
2022-08-07T03:59:08.365Z,11.20
2022-08-07T04:01:24.991Z,11.20
2022-08-07T04:03:55.171Z,11.10
2022-08-07T04:06:37.383Z,11.20
2022-08-07T04:09:16.000Z,11.20
2022-08-07T04:12:21.081Z,11.20
2022-08-07T04:14:45.983Z,11.20
2022-08-07T04:17:20.780Z,11.20
2022-08-07T04:19:54.105Z,11.10
2022-08-07T04:22:27.583Z,11.10
2022-08-07T04:25:01.679Z,11.00
2022-08-07T04:27:35.987Z,11.00
2022-08-07T04:30:21.019Z,11.00
2022-08-07T04:33:18.633Z,10.90
2022-08-07T04:35:50.170Z,10.90
2022-08-07T04:38:22.247Z,10.90
2022-08-07T04:40:51.875Z,10.90
2022-08-07T04:44:10.487Z,10.90
2022-08-07T04:46:34.285Z,10.90
2022-08-07T04:49:17.681Z,10.90
2022-08-07T04:52:04.970Z,10.90
2022-08-07T04:54:37.615Z,10.90
2022-08-07T04:58:24.304Z,11.00
2022-08-07T05:00:14.347Z,11.00
2022-08-07T05:02:56.998Z,11.00
2022-08-07T05:05:53.464Z,11.10
2022-08-07T05:08:45.854Z,11.10
2022-08-07T05:11:26.180Z,11.10
2022-08-07T05:14:53.188Z,11.20
2022-08-07T05:16:53.195Z,11.10
2022-08-07T05:19:25.669Z,11.30
2022-08-07T05:22:05.573Z,11.30
2022-08-07T05:24:40.933Z,11.40
2022-08-07T05:27:14.578Z,11.50
2022-08-07T05:30:02.775Z,11.60
2022-08-07T05:32:32.145Z,11.70
2022-08-07T05:35:02.310Z,11.80
2022-08-07T05:37:40.767Z,11.90
2022-08-07T05:40:18.087Z,11.90
2022-08-07T05:42:55.715Z,12.10
2022-08-07T05:45:46.357Z,12.20
2022-08-07T05:48:15.247Z,12.30
2022-08-07T05:50:47.285Z,12.50
2022-08-07T05:54:13.024Z,12.60
2022-08-07T05:56:12.482Z,12.80
2022-08-07T05:58:49.286Z,12.90
2022-08-07T06:01:24.630Z,13.00
2022-08-07T06:04:00.925Z,13.10
2022-08-07T06:06:36.554Z,13.30
2022-08-07T06:09:10.724Z,13.50
2022-08-07T06:11:44.409Z,13.60
2022-08-07T06:14:20.708Z,13.60
2022-08-07T06:16:56.341Z,13.80
2022-08-07T06:19:51.766Z,13.90
2022-08-07T06:22:27.133Z,14.00
2022-08-07T06:25:15.400Z,14.20
2022-08-07T06:28:01.338Z,14.30
2022-08-07T06:30:37.334Z,14.40
2022-08-07T06:33:16.564Z,14.50
2022-08-07T06:36:06.889Z,14.60
2022-08-07T06:38:38.318Z,14.70
2022-08-07T06:41:19.341Z,14.80
2022-08-07T06:44:12.387Z,14.90
2022-08-07T06:46:41.394Z,15.10
2022-08-07T06:49:12.696Z,15.20
2022-08-07T06:51:49.396Z,15.40
2022-08-07T06:55:32.148Z,15.60
2022-08-07T06:57:13.487Z,15.70
2022-08-07T07:00:11.647Z,15.90
2022-08-07T07:02:54.513Z,16.00
2022-08-07T07:06:05.708Z,16.10
2022-08-07T07:08:18.926Z,16.20
2022-08-07T07:10:57.164Z,16.40
2022-08-07T07:13:41.647Z,16.50
2022-08-07T07:16:27.595Z,16.60
2022-08-07T07:19:56.403Z,16.70
2022-08-07T07:22:05.152Z,16.90
2022-08-07T07:24:56.632Z,16.90
2022-08-07T07:27:35.838Z,17.10
2022-08-07T07:30:38.104Z,17.20
2022-08-07T07:33:08.744Z,17.30
2022-08-07T07:35:54.402Z,17.40
2022-08-07T07:38:33.513Z,17.50
2022-08-07T07:41:05.553Z,17.60
2022-08-07T07:44:14.766Z,17.70
2022-08-07T07:46:39.873Z,17.80
2022-08-07T07:50:33.277Z,18.00
2022-08-07T07:52:12.767Z,18.10
2022-08-07T07:54:44.178Z,18.20
2022-08-07T07:57:43.640Z,18.30
2022-08-07T08:00:12.211Z,18.40
2022-08-07T08:03:05.372Z,18.50
2022-08-07T08:05:43.014Z,18.60
2022-08-07T08:08:32.390Z,18.70
2022-08-07T08:11:08.169Z,18.80
2022-08-07T08:13:54.312Z,19.00
2022-08-07T08:16:29.848Z,19.10
2022-08-07T08:19:09.664Z,19.20
2022-08-07T08:22:09.833Z,19.30
2022-08-07T08:25:18.872Z,19.40
2022-08-07T08:27:56.763Z,19.50
2022-08-07T08:30:27.610Z,19.70
2022-08-07T08:32:59.475Z,19.80
2022-08-07T08:35:39.447Z,19.90
2022-08-07T08:38:18.106Z,20.00
2022-08-07T08:40:55.502Z,20.10
2022-08-07T08:43:42.057Z,20.20
2022-08-07T08:46:17.899Z,20.40
2022-08-07T08:48:58.206Z,20.50
2022-08-07T08:51:49.667Z,20.60
2022-08-07T08:54:25.935Z,20.70
2022-08-07T08:56:56.106Z,20.80
2022-08-07T08:59:30.403Z,21.00
2022-08-07T09:02:36.697Z,21.10
2022-08-07T09:05:24.977Z,21.20
2022-08-07T09:08:12.160Z,21.40
2022-08-07T09:10:53.391Z,21.60
2022-08-07T09:13:36.907Z,21.90
2022-08-07T09:16:25.762Z,22.10
2022-08-07T09:19:52.283Z,22.20
2022-08-07T09:24:28.352Z,22.40
2022-08-07T09:25:17.467Z,22.60
2022-08-07T09:28:00.038Z,22.70
2022-08-07T09:30:38.807Z,22.80
2022-08-07T09:33:40.682Z,22.90
2022-08-07T09:36:15.527Z,23.00
2022-08-07T09:38:53.793Z,23.00
2022-08-07T09:41:36.181Z,23.10
2022-08-07T09:44:32.725Z,23.10
2022-08-07T09:47:52.062Z,23.20
2022-08-07T09:50:20.071Z,23.40
2022-08-07T09:52:52.307Z,23.60
2022-08-07T09:55:29.355Z,23.70
2022-08-07T09:58:35.841Z,23.70
2022-08-07T10:01:14.995Z,23.90
2022-08-07T10:04:32.467Z,24.10
2022-08-07T10:07:26.212Z,24.30
2022-08-07T10:10:24.122Z,24.40
2022-08-07T10:14:01.315Z,24.50
2022-08-07T10:16:48.384Z,24.70
2022-08-07T10:19:41.932Z,25.00
2022-08-07T10:22:33.760Z,25.10
2022-08-07T10:25:42.422Z,25.10
2022-08-07T10:28:26.139Z,25.10
2022-08-07T10:31:10.961Z,25.20
2022-08-07T10:34:06.461Z,25.30
2022-08-07T10:36:58.334Z,25.40
2022-08-07T10:40:03.078Z,25.60
2022-08-07T10:42:39.440Z,25.80
2022-08-07T10:45:19.430Z,25.90
2022-08-07T10:48:17.434Z,26.10
2022-08-07T10:50:53.171Z,26.40
2022-08-07T10:53:28.561Z,26.50
2022-08-07T10:56:35.642Z,26.60
2022-08-07T10:59:21.412Z,26.80
2022-08-07T11:02:05.313Z,27.00
2022-08-07T11:04:57.448Z,27.20
2022-08-07T11:07:58.800Z,27.50
2022-08-07T11:10:33.599Z,27.80
2022-08-07T11:13:16.826Z,28.10
2022-08-07T11:16:07.131Z,28.30
2022-08-07T11:18:42.324Z,28.50
2022-08-07T11:21:18.019Z,28.70
2022-08-07T11:23:56.651Z,28.70
2022-08-07T11:26:32.535Z,28.70
2022-08-07T11:29:13.105Z,28.80
2022-08-07T11:32:05.695Z,29.00
2022-08-07T11:34:42.523Z,29.10
2022-08-07T11:37:24.373Z,29.20
2022-08-07T11:40:20.077Z,29.40
2022-08-07T11:42:55.483Z,29.60
2022-08-07T11:45:35.935Z,29.90
2022-08-07T11:48:29.836Z,30.10
2022-08-07T11:51:45.120Z,30.30
2022-08-07T11:54:34.360Z,30.40
2022-08-07T11:57:14.176Z,30.40
2022-08-07T12:00:17.910Z,29.80
2022-08-07T12:03:44.208Z,30.10
2022-08-07T12:06:37.791Z,30.70
2022-08-07T12:09:16.787Z,31.10
2022-08-07T12:12:10.782Z,31.20
2022-08-07T12:14:56.426Z,31.50
2022-08-07T12:17:38.351Z,31.80
2022-08-07T12:20:29.746Z,31.90
2022-08-07T12:23:37.422Z,32.00
2022-08-07T12:26:29.213Z,31.90
2022-08-07T12:29:07.213Z,32.00
2022-08-07T12:32:01.940Z,31.80
2022-08-07T12:34:33.864Z,31.90
2022-08-07T12:37:08.781Z,31.90
2022-08-07T12:39:50.980Z,32.20
2022-08-07T12:42:27.989Z,32.50
2022-08-07T12:44:59.719Z,32.70
2022-08-07T12:47:39.708Z,33.00
2022-08-07T12:50:39.649Z,33.30
2022-08-07T12:53:17.745Z,33.60
2022-08-07T12:56:02.777Z,33.90
2022-08-07T12:58:37.481Z,34.00
2022-08-07T13:01:18.149Z,34.10
2022-08-07T13:04:02.316Z,34.50
2022-08-07T13:07:00.451Z,34.70
2022-08-07T13:10:37.595Z,35.40
2022-08-07T13:12:51.573Z,35.60
2022-08-07T13:15:31.881Z,34.80
2022-08-07T13:18:26.452Z,34.30
2022-08-07T13:21:07.106Z,34.40
2022-08-07T13:24:00.821Z,34.80
2022-08-07T13:26:40.090Z,34.80
2022-08-07T13:29:15.319Z,35.00
2022-08-07T13:31:57.536Z,35.30
2022-08-07T13:34:38.578Z,35.70
2022-08-07T13:37:30.569Z,36.10
2022-08-07T13:40:36.794Z,36.10
2022-08-07T13:43:00.743Z,36.30
2022-08-07T13:46:11.578Z,36.50
2022-08-07T13:48:33.741Z,36.70
2022-08-07T13:51:27.413Z,36.50
2022-08-07T13:54:01.628Z,36.30
2022-08-07T13:56:35.341Z,35.70
2022-08-07T13:59:13.435Z,36.00
2022-08-07T14:01:51.167Z,36.10
2022-08-07T14:04:37.983Z,35.70
2022-08-07T14:07:15.870Z,35.70
2022-08-07T14:10:02.546Z,36.00
2022-08-07T14:12:49.316Z,36.00
2022-08-07T14:15:31.600Z,36.20
2022-08-07T14:18:24.451Z,36.20
2022-08-07T14:21:07.848Z,36.40
2022-08-07T14:24:00.170Z,36.90
2022-08-07T14:26:33.400Z,37.20
2022-08-07T14:30:03.031Z,37.00
2022-08-07T14:31:56.203Z,35.80
2022-08-07T14:34:29.900Z,35.50
2022-08-07T14:37:01.650Z,35.80
2022-08-07T14:40:17.300Z,36.30
2022-08-07T14:42:31.497Z,36.70
2022-08-07T14:45:22.380Z,37.10
2022-08-07T14:47:53.074Z,37.10
2022-08-07T14:50:29.221Z,37.40
2022-08-07T14:53:09.890Z,37.40
2022-08-07T14:55:55.366Z,37.40
2022-08-07T14:58:34.823Z,37.30
2022-08-07T15:01:21.617Z,37.00
2022-08-07T15:03:53.004Z,37.10
2022-08-07T15:06:26.474Z,37.10
2022-08-07T15:08:56.253Z,36.70
2022-08-07T15:14:25.460Z,36.80
2022-08-07T15:17:01.699Z,36.90
2022-08-07T15:20:30.548Z,36.70
2022-08-07T15:22:31.339Z,36.20
2022-08-07T15:25:17.790Z,36.00
2022-08-07T15:28:02.063Z,36.10
2022-08-07T15:31:05.135Z,36.10
2022-08-07T15:33:33.539Z,36.00
2022-08-07T15:36:05.748Z,35.50
2022-08-07T15:38:51.887Z,35.20
2022-08-07T15:47:16.937Z,34.90
2022-08-07T15:50:05.812Z,34.90
2022-08-07T15:52:38.554Z,34.70
2022-08-07T15:55:12.383Z,34.50
2022-08-07T15:57:48.804Z,34.30
2022-08-07T16:00:31.825Z,33.90
2022-08-07T16:03:06.216Z,33.60
2022-08-07T16:05:38.646Z,33.30
2022-08-07T16:08:31.867Z,32.80
2022-08-07T16:11:27.187Z,32.30
2022-08-07T16:14:02.843Z,32.10
2022-08-07T16:16:49.930Z,31.80
2022-08-07T16:19:42.435Z,31.60
2022-08-07T16:22:55.709Z,31.20
2022-08-07T16:25:52.603Z,30.60
2022-08-07T16:30:06.768Z,30.20
2022-08-07T16:31:50.773Z,30.10
2022-08-07T16:34:34.760Z,29.90
2022-08-07T16:38:03.356Z,29.80
2022-08-07T16:41:02.125Z,29.70
2022-08-07T16:44:05.686Z,29.50
2022-08-07T16:47:08.839Z,29.30
2022-08-07T16:50:35.269Z,29.20
2022-08-07T16:53:48.077Z,29.10
2022-08-07T16:56:10.823Z,28.90
2022-08-07T16:59:10.804Z,28.70
2022-08-07T17:01:55.723Z,28.50
2022-08-07T17:04:36.916Z,28.40
2022-08-07T17:07:28.368Z,28.40
2022-08-07T17:10:32.654Z,28.30
2022-08-07T17:13:17.754Z,28.30
2022-08-07T17:15:55.654Z,28.20
2022-08-07T17:18:32.528Z,28.20
2022-08-07T17:21:02.831Z,28.10
2022-08-07T17:23:57.555Z,28.00
2022-08-07T17:26:35.873Z,27.80
2022-08-07T17:30:15.379Z,27.80
2022-08-07T17:32:30.501Z,27.70
2022-08-07T17:35:50.945Z,27.60
2022-08-07T17:38:17.697Z,27.50
2022-08-07T17:42:02.225Z,27.40
2022-08-07T17:44:02.638Z,27.40
2022-08-07T17:46:42.813Z,27.40
2022-08-07T17:49:23.920Z,27.30
2022-08-07T17:52:01.320Z,27.20
2022-08-07T17:54:53.177Z,27.20
2022-08-07T17:57:32.094Z,27.10
2022-08-07T18:00:33.037Z,27.00
2022-08-07T18:03:18.557Z,26.90
2022-08-07T18:06:03.489Z,26.80
2022-08-07T18:09:01.115Z,26.70
2022-08-07T18:12:12.038Z,26.60
2022-08-07T18:14:37.510Z,26.50
2022-08-07T18:18:33.038Z,26.50
2022-08-07T18:21:11.945Z,26.40
2022-08-07T18:23:07.039Z,26.30
2022-08-07T18:26:02.857Z,26.20
2022-08-07T18:28:58.213Z,26.20
2022-08-07T18:31:40.491Z,26.10
2022-08-07T18:34:37.149Z,26.00
2022-08-07T18:38:56.298Z,25.90
2022-08-07T18:40:42.406Z,25.80
2022-08-07T18:43:15.189Z,25.60
2022-08-07T18:46:21.655Z,25.50
2022-08-07T18:50:19.311Z,25.40
2022-08-07T18:52:37.612Z,25.30
2022-08-07T18:54:43.239Z,25.10
2022-08-07T18:57:37.057Z,25.00
2022-08-07T19:00:33.480Z,24.90
2022-08-07T19:03:11.823Z,24.70
2022-08-07T19:06:02.096Z,24.60
2022-08-07T19:08:46.568Z,24.60
2022-08-07T19:11:36.243Z,24.30
2022-08-07T19:14:17.284Z,23.90
2022-08-07T19:17:06.694Z,23.60
2022-08-07T19:19:48.930Z,23.20
2022-08-07T19:22:30.779Z,22.80
2022-08-07T19:25:06.300Z,22.60
2022-08-07T19:28:58.737Z,22.30
2022-08-07T19:31:05.415Z,22.10
2022-08-07T19:33:33.470Z,21.60
2022-08-07T19:36:04.945Z,21.30
2022-08-07T19:38:52.931Z,21.20
2022-08-07T19:41:44.128Z,21.00
2022-08-07T19:44:21.232Z,20.80
2022-08-07T19:46:57.576Z,20.70
2022-08-07T19:49:57.702Z,20.60
2022-08-07T19:52:18.731Z,20.60
2022-08-07T19:54:56.487Z,20.50
2022-08-07T19:58:03.553Z,20.40
2022-08-07T20:00:28.338Z,20.30
2022-08-07T20:03:02.907Z,20.20
2022-08-07T20:06:00.483Z,20.10
2022-08-07T20:08:25.646Z,20.10
2022-08-07T20:11:01.902Z,20.00
2022-08-07T20:13:37.964Z,19.90
2022-08-07T20:16:15.739Z,19.90
2022-08-07T20:19:04.661Z,19.90
2022-08-07T20:21:46.681Z,19.90
2022-08-07T20:24:20.182Z,19.80
2022-08-07T20:26:52.128Z,19.70
2022-08-07T20:29:49.268Z,19.60
2022-08-07T20:32:22.710Z,19.60
2022-08-07T20:34:58.430Z,19.50
2022-08-07T20:37:33.723Z,19.50
2022-08-07T20:40:31.571Z,19.40
2022-08-07T20:42:59.108Z,19.50
2022-08-07T20:46:24.349Z,19.40
2022-08-07T20:48:28.869Z,19.40
2022-08-07T20:51:01.008Z,19.40
2022-08-07T20:54:02.120Z,19.50
2022-08-07T20:56:20.264Z,19.50
2022-08-07T20:59:02.304Z,19.60
2022-08-07T21:01:55.404Z,19.60
2022-08-07T21:04:24.011Z,19.60
2022-08-07T21:06:56.932Z,19.50
2022-08-07T21:09:35.474Z,19.60
2022-08-07T21:12:25.915Z,19.60
2022-08-07T21:15:01.323Z,19.70
2022-08-07T21:18:03.164Z,19.80
2022-08-07T21:20:30.224Z,19.80
2022-08-07T21:23:08.500Z,19.90
2022-08-07T21:25:56.712Z,19.90
2022-08-07T21:28:48.234Z,19.90
2022-08-07T21:31:49.275Z,19.90
2022-08-07T21:34:26.688Z,20.00
2022-08-07T21:37:04.757Z,20.00
2022-08-07T21:39:45.956Z,20.10
2022-08-07T21:42:42.224Z,20.10
2022-08-07T21:46:07.763Z,20.00
2022-08-07T21:48:32.468Z,20.00
2022-08-07T21:51:20.035Z,19.90
2022-08-07T21:53:55.982Z,19.80
2022-08-07T21:56:47.741Z,19.70
2022-08-07T21:59:36.257Z,19.60
2022-08-07T22:02:32.205Z,19.60
2022-08-07T22:05:04.665Z,19.50
2022-08-07T22:07:48.692Z,19.50
2022-08-07T22:10:32.764Z,19.40
2022-08-07T22:13:05.985Z,19.30
2022-08-07T22:16:44.596Z,19.10
2022-08-07T22:18:38.138Z,19.00
2022-08-07T22:21:19.108Z,19.00
2022-08-07T22:23:53.555Z,18.90
2022-08-07T22:26:25.047Z,18.90
2022-08-07T22:29:00.230Z,18.80
2022-08-07T22:31:59.368Z,18.80
2022-08-07T22:34:35.809Z,18.70
2022-08-07T22:37:15.273Z,18.70
2022-08-07T22:39:52.640Z,18.60
2022-08-07T22:42:26.162Z,18.60
2022-08-07T22:45:02.394Z,18.60
2022-08-07T22:48:31.241Z,18.50
2022-08-07T22:51:16.411Z,18.50
2022-08-07T22:54:07.386Z,18.50
2022-08-07T22:56:51.737Z,18.50
2022-08-07T22:59:49.841Z,18.40
2022-08-07T23:02:41.001Z,18.30
2022-08-07T23:06:10.075Z,18.20
2022-08-07T23:08:42.032Z,17.90
2022-08-07T23:11:35.088Z,17.80
2022-08-07T23:14:30.985Z,17.60
2022-08-07T23:17:19.922Z,17.40
2022-08-07T23:20:20.333Z,17.30
2022-08-07T23:24:04.491Z,17.20
2022-08-07T23:26:26.037Z,17.00
2022-08-07T23:29:43.389Z,16.90
2022-08-07T23:34:24.136Z,16.80
2022-08-07T23:35:22.877Z,16.60
2022-08-07T23:38:19.010Z,16.50
2022-08-07T23:40:51.731Z,16.40
2022-08-07T23:43:52.512Z,16.30
2022-08-07T23:46:52.831Z,16.10
2022-08-07T23:49:51.424Z,15.90
2022-08-07T23:52:58.956Z,15.90
2022-08-07T23:55:52.301Z,15.70
2022-08-07T23:58:24.942Z,15.50
